sensor_id;sensor_type;location;lat;lon;timestamp;pressure;altitude;pressure_sealevel;temperature;humidity
54876;BME280;40764;48.472;8.166;2023-04-01T00:05:30;97004.75;;;9.46;93.10
54876;BME280;40764;48.472;8.166;2023-04-01T00:11:31;97007.63;;;9.41;92.30
54876;BME280;40764;48.472;8.166;2023-04-01T00:17:32;97004.75;;;9.46;91.75
54876;BME280;40764;48.472;8.166;2023-04-01T00:23:33;96995.59;;;9.51;91.91
54876;BME280;40764;48.472;8.166;2023-04-01T00:29:36;96999.69;;;9.22;94.87
54876;BME280;40764;48.472;8.166;2023-04-01T00:35:37;96996.78;;;9.19;93.49
54876;BME280;40764;48.472;8.166;2023-04-01T00:41:38;96986.28;;;9.43;91.35
54876;BME280;40764;48.472;8.166;2023-04-01T00:47:38;96994.03;;;9.10;93.47
54876;BME280;40764;48.472;8.166;2023-04-01T00:53:42;96998.25;;;9.25;93.69
54876;BME280;40764;48.472;8.166;2023-04-01T00:59:46;97007.25;;;9.25;91.56
54876;BME280;40764;48.472;8.166;2023-04-01T01:06:29;97006.75;;;9.23;93.41
54876;BME280;40764;48.472;8.166;2023-04-01T01:38:34;96997.16;;;8.95;92.13
54876;BME280;40764;48.472;8.166;2023-04-01T01:44:35;97005.47;;;9.21;89.50
54876;BME280;40764;48.472;8.166;2023-04-01T01:50:38;97019.34;;;9.02;90.32
54876;BME280;40764;48.472;8.166;2023-04-01T01:56:42;97000.00;;;8.81;90.71
54876;BME280;40764;48.472;8.166;2023-04-01T02:02:47;96993.16;;;8.92;89.62
54876;BME280;40764;48.472;8.166;2023-04-01T02:08:57;96996.66;;;8.84;90.17
54876;BME280;40764;48.472;8.166;2023-04-01T02:15:06;97005.47;;;8.90;89.68
54876;BME280;40764;48.472;8.166;2023-04-01T02:21:08;96989.78;;;8.95;89.86
54876;BME280;40764;48.472;8.166;2023-04-01T02:27:10;96991.91;;;8.98;89.49
54876;BME280;40764;48.472;8.166;2023-04-01T02:33:11;96994.06;;;8.79;89.65
54876;BME280;40764;48.472;8.166;2023-04-01T02:39:12;97013.00;;;8.84;89.20
54876;BME280;40764;48.472;8.166;2023-04-01T02:45:13;96999.72;;;8.91;88.79
54876;BME280;40764;48.472;8.166;2023-04-01T02:51:14;96979.47;;;8.75;90.10
54876;BME280;40764;48.472;8.166;2023-04-01T02:57:25;96982.22;;;8.84;88.89
54876;BME280;40764;48.472;8.166;2023-04-01T03:03:25;96978.69;;;8.83;88.93
54876;BME280;40764;48.472;8.166;2023-04-01T03:09:26;96980.44;;;8.79;89.30
54876;BME280;40764;48.472;8.166;2023-04-01T03:15:26;96982.38;;;8.87;89.37
54876;BME280;40764;48.472;8.166;2023-04-01T03:21:27;96984.88;;;8.97;88.67
54876;BME280;40764;48.472;8.166;2023-04-01T03:27:27;96977.59;;;8.93;89.97
54876;BME280;40764;48.472;8.166;2023-04-01T03:33:34;96972.03;;;8.98;90.02
54876;BME280;40764;48.472;8.166;2023-04-01T03:39:35;96965.50;;;9.16;90.07
54876;BME280;40764;48.472;8.166;2023-04-01T03:45:36;96967.13;;;9.17;89.45
54876;BME280;40764;48.472;8.166;2023-04-01T03:51:43;96964.53;;;9.12;89.84
54876;BME280;40764;48.472;8.166;2023-04-01T03:57:44;96966.31;;;9.17;89.40
54876;BME280;40764;48.472;8.166;2023-04-01T04:03:44;96952.72;;;9.25;88.92
54876;BME280;40764;48.472;8.166;2023-04-01T04:09:45;96956.88;;;9.23;88.76
54876;BME280;40764;48.472;8.166;2023-04-01T04:15:46;96948.25;;;9.29;88.37
54876;BME280;40764;48.472;8.166;2023-04-01T04:21:46;96961.06;;;9.29;87.37
54876;BME280;40764;48.472;8.166;2023-04-01T04:27:46;96967.34;;;9.29;87.09
54876;BME280;40764;48.472;8.166;2023-04-01T04:33:47;96966.81;;;9.19;87.77
54876;BME280;40764;48.472;8.166;2023-04-01T04:39:48;96983.97;;;9.19;87.02
54876;BME280;40764;48.472;8.166;2023-04-01T04:45:48;96967.75;;;9.14;87.22
54876;BME280;40764;48.472;8.166;2023-04-01T04:51:48;96982.78;;;9.03;87.77
54876;BME280;40764;48.472;8.166;2023-04-01T04:57:49;96962.44;;;9.00;87.41
54876;BME280;40764;48.472;8.166;2023-04-01T05:03:50;96956.38;;;9.12;86.96
54876;BME280;40764;48.472;8.166;2023-04-01T05:09:51;96946.91;;;9.10;87.07
54876;BME280;40764;48.472;8.166;2023-04-01T05:15:51;96931.66;;;9.09;87.07
54876;BME280;40764;48.472;8.166;2023-04-01T05:21:52;96931.56;;;8.83;88.80
54876;BME280;40764;48.472;8.166;2023-04-01T05:27:53;96938.44;;;8.80;89.57
54876;BME280;40764;48.472;8.166;2023-04-01T05:33:53;96933.03;;;8.89;88.93
54876;BME280;40764;48.472;8.166;2023-04-01T05:39:54;96935.56;;;8.77;90.09
54876;BME280;40764;48.472;8.166;2023-04-01T05:45:54;96928.19;;;8.77;90.23
54876;BME280;40764;48.472;8.166;2023-04-01T05:51:55;96925.44;;;8.77;90.19
54876;BME280;40764;48.472;8.166;2023-04-01T05:57:55;96926.78;;;8.88;89.57
54876;BME280;40764;48.472;8.166;2023-04-01T06:03:56;96926.94;;;8.92;89.30
54876;BME280;40764;48.472;8.166;2023-04-01T06:09:56;96919.78;;;9.05;89.18
54876;BME280;40764;48.472;8.166;2023-04-01T06:16:10;96917.88;;;9.14;88.19
54876;BME280;40764;48.472;8.166;2023-04-01T06:54:58;96930.09;;;9.25;90.62
54876;BME280;40764;48.472;8.166;2023-04-01T07:01:04;96922.59;;;9.30;90.42
54876;BME280;40764;48.472;8.166;2023-04-01T07:13:19;96924.19;;;9.40;92.63
54876;BME280;40764;48.472;8.166;2023-04-01T07:25:33;96928.03;;;9.39;92.77
54876;BME280;40764;48.472;8.166;2023-04-01T07:31:57;96924.63;;;9.25;94.32
54876;BME280;40764;48.472;8.166;2023-04-01T07:50:24;96939.78;;;9.57;92.75
54876;BME280;40764;48.472;8.166;2023-04-01T08:03:19;96960.03;;;9.56;94.50
54876;BME280;40764;48.472;8.166;2023-04-01T08:09:31;96971.56;;;9.61;92.57
54876;BME280;40764;48.472;8.166;2023-04-01T08:15:47;96965.31;;;9.61;94.01
54876;BME280;40764;48.472;8.166;2023-04-01T08:21:52;96982.00;;;9.59;93.38
54876;BME280;40764;48.472;8.166;2023-04-01T08:34:15;96989.31;;;9.33;94.31
54876;BME280;40764;48.472;8.166;2023-04-01T08:40:37;96993.47;;;9.30;94.50
54876;BME280;40764;48.472;8.166;2023-04-01T08:47:03;96993.97;;;9.41;94.81
54876;BME280;40764;48.472;8.166;2023-04-01T09:24:34;97024.69;;;9.55;90.29
54876;BME280;40764;48.472;8.166;2023-04-01T09:31:08;97023.09;;;9.54;90.55
54876;BME280;40764;48.472;8.166;2023-04-01T09:43:27;97025.84;;;9.80;90.36
54876;BME280;40764;48.472;8.166;2023-04-01T11:07:09;97051.44;;;9.53;93.18
54876;BME280;40764;48.472;8.166;2023-04-01T11:39:00;97070.78;;;9.74;92.79
54876;BME280;40764;48.472;8.166;2023-04-01T11:45:23;97073.50;;;9.74;91.91
54876;BME280;40764;48.472;8.166;2023-04-01T11:51:37;97075.00;;;9.89;91.11
54876;BME280;40764;48.472;8.166;2023-04-01T11:57:53;97081.22;;;9.81;90.57
54876;BME280;40764;48.472;8.166;2023-04-01T12:10:21;97085.03;;;9.62;93.64
54876;BME280;40764;48.472;8.166;2023-04-01T12:42:30;97096.84;;;9.98;93.19
54876;BME280;40764;48.472;8.166;2023-04-01T13:38:55;97106.28;;;10.48;91.42
54876;BME280;40764;48.472;8.166;2023-04-01T13:51:18;97118.16;;;10.35;93.80
54876;BME280;40764;48.472;8.166;2023-04-01T14:35:37;97127.03;;;10.75;88.39
54876;BME280;40764;48.472;8.166;2023-04-01T14:41:48;97125.25;;;10.79;89.18
54876;BME280;40764;48.472;8.166;2023-04-01T14:48:13;97121.22;;;10.85;88.51
54876;BME280;40764;48.472;8.166;2023-04-01T14:54:21;97127.66;;;10.90;88.43
54876;BME280;40764;48.472;8.166;2023-04-01T15:07:09;97124.59;;;10.57;92.69
54876;BME280;40764;48.472;8.166;2023-04-01T15:13:46;97120.28;;;10.73;92.46
54876;BME280;40764;48.472;8.166;2023-04-01T15:26:33;97133.28;;;10.50;94.66
54876;BME280;40764;48.472;8.166;2023-04-01T15:39:05;97134.25;;;10.63;96.36
54876;BME280;40764;48.472;8.166;2023-04-01T16:03:38;97119.13;;;10.82;97.61
54876;BME280;40764;48.472;8.166;2023-04-01T16:28:31;97114.16;;;10.76;95.85
54876;BME280;40764;48.472;8.166;2023-04-01T16:47:09;97106.28;;;10.66;91.85
54876;BME280;40764;48.472;8.166;2023-04-01T16:59:19;97083.94;;;10.46;91.75
54876;BME280;40764;48.472;8.166;2023-04-01T17:05:39;97091.78;;;10.39;92.93
54876;BME280;40764;48.472;8.166;2023-04-01T17:18:30;97137.41;;;10.21;90.77
54876;BME280;40764;48.472;8.166;2023-04-01T17:24:55;97147.56;;;10.30;89.92
54876;BME280;40764;48.472;8.166;2023-04-01T17:37:26;97180.00;;;10.31;89.98
54876;BME280;40764;48.472;8.166;2023-04-01T17:49:43;97209.56;;;10.29;89.14
54876;BME280;40764;48.472;8.166;2023-04-01T18:08:59;97229.94;;;9.30;99.02
54876;BME280;40764;48.472;8.166;2023-04-01T18:21:40;97232.09;;;9.42;100.00
54876;BME280;40764;48.472;8.166;2023-04-01T18:27:47;97237.19;;;9.35;100.00
54876;BME280;40764;48.472;8.166;2023-04-01T18:39:57;97252.78;;;9.43;100.00
54876;BME280;40764;48.472;8.166;2023-04-01T18:46:16;97248.38;;;9.11;100.00
54876;BME280;40764;48.472;8.166;2023-04-01T18:52:24;97258.31;;;8.93;100.00
54876;BME280;40764;48.472;8.166;2023-04-01T19:17:16;97284.59;;;8.89;100.00
54876;BME280;40764;48.472;8.166;2023-04-01T19:35:48;97280.06;;;8.84;100.00
54876;BME280;40764;48.472;8.166;2023-04-01T19:42:03;97271.63;;;8.72;100.00
54876;BME280;40764;48.472;8.166;2023-04-01T19:48:43;97279.47;;;8.74;100.00
54876;BME280;40764;48.472;8.166;2023-04-01T20:01:12;97385.47;;;8.29;99.88
54876;BME280;40764;48.472;8.166;2023-04-01T20:13:52;97382.41;;;8.49;99.12
54876;BME280;40764;48.472;8.166;2023-04-01T20:20:00;97388.38;;;8.32;100.00
54876;BME280;40764;48.472;8.166;2023-04-01T20:26:05;97385.53;;;8.10;100.00
54876;BME280;40764;48.472;8.166;2023-04-01T20:45:26;97380.31;;;8.27;100.00
54876;BME280;40764;48.472;8.166;2023-04-01T20:51:46;97399.50;;;8.03;100.00
54876;BME280;40764;48.472;8.166;2023-04-01T21:04:27;97404.28;;;8.12;100.00
54876;BME280;40764;48.472;8.166;2023-04-01T21:10:41;97403.22;;;7.94;100.00
54876;BME280;40764;48.472;8.166;2023-04-01T21:16:50;97414.06;;;8.13;100.00
54876;BME280;40764;48.472;8.166;2023-04-01T21:29:30;97411.16;;;8.23;100.00
54876;BME280;40764;48.472;8.166;2023-04-01T22:14:03;97418.13;;;8.29;100.00
54876;BME280;40764;48.472;8.166;2023-04-01T22:32:50;97437.00;;;8.25;100.00
54876;BME280;40764;48.472;8.166;2023-04-01T22:51:24;97439.63;;;8.30;100.00
54876;BME280;40764;48.472;8.166;2023-04-01T22:57:46;97447.22;;;8.33;100.00
54876;BME280;40764;48.472;8.166;2023-04-01T23:03:51;97447.78;;;8.30;100.00
54876;BME280;40764;48.472;8.166;2023-04-01T23:09:53;97448.56;;;8.17;100.00
54876;BME280;40764;48.472;8.166;2023-04-01T23:15:56;97451.75;;;8.05;100.00
54876;BME280;40764;48.472;8.166;2023-04-01T23:28:46;97455.78;;;8.08;100.00
54876;BME280;40764;48.472;8.166;2023-04-01T23:34:49;97455.44;;;8.28;100.00
54876;BME280;40764;48.472;8.166;2023-04-01T23:40:52;97459.06;;;8.24;100.00
54876;BME280;40764;48.472;8.166;2023-04-01T23:46:54;97465.16;;;8.34;100.00
54876;BME280;40764;48.472;8.166;2023-04-01T23:53:16;97461.41;;;8.30;100.00
54876;BME280;40764;48.472;8.166;2023-04-01T23:59:37;97464.41;;;8.48;100.00
